createdAt,value
2022-08-23T00:02:04.013Z,100389.00
2022-08-23T00:04:13.179Z,100386.16
2022-08-23T00:06:17.411Z,100380.97
2022-08-23T00:08:21.581Z,100384.63
2022-08-23T00:10:24.914Z,100384.63
2022-08-23T00:12:28.242Z,100381.78
2022-08-23T00:14:35.830Z,100379.78
2022-08-23T00:16:39.516Z,100387.69
2022-08-23T00:18:47.697Z,100391.19
2022-08-23T00:20:52.729Z,100395.56
2022-08-23T00:22:56.304Z,100400.94
2022-08-23T00:24:59.657Z,100401.81
2022-08-23T00:27:07.451Z,100396.44
2022-08-23T00:29:10.900Z,100389.38
2022-08-23T00:31:14.249Z,100387.16
2022-08-23T00:33:17.797Z,100397.91
2022-08-23T00:35:26.948Z,100387.84
2022-08-23T00:37:32.538Z,100390.19
2022-08-23T00:39:36.084Z,100386.34
2022-08-23T00:41:39.731Z,100399.28
2022-08-23T00:44:01.107Z,100390.06
2022-08-23T00:46:29.642Z,100390.59
2022-08-23T00:48:33.996Z,100390.41
2022-08-23T00:50:45.088Z,100384.06
2022-08-23T00:52:54.332Z,100382.03
2022-08-23T00:54:58.421Z,100376.66
2022-08-23T00:57:05.798Z,100369.28
2022-08-23T00:59:09.034Z,100369.28
2022-08-23T01:01:12.531Z,100373.66
2022-08-23T01:03:21.269Z,100375.31
2022-08-23T01:05:29.028Z,100369.94
2022-08-23T01:07:49.000Z,100376.16
2022-08-23T01:09:54.838Z,100374.31
2022-08-23T01:12:04.670Z,100364.56
2022-08-23T01:14:13.351Z,100365.59
2022-08-23T01:16:22.778Z,100376.34
2022-08-23T01:18:29.747Z,100364.72
2022-08-23T01:20:43.995Z,100365.59
2022-08-23T01:22:56.548Z,100362.22
2022-08-23T01:25:07.382Z,100362.22
2022-08-23T01:27:17.632Z,100360.53
2022-08-23T01:29:20.879Z,100365.25
2022-08-23T01:31:25.576Z,100356.50
2022-08-23T01:33:29.090Z,100361.22
2022-08-23T01:35:37.974Z,100363.22
2022-08-23T01:37:41.955Z,100362.56
2022-08-23T01:39:45.440Z,100365.56
2022-08-23T01:41:51.482Z,100355.97
2022-08-23T01:43:55.280Z,100355.47
2022-08-23T01:46:09.690Z,100363.00
2022-08-23T01:48:14.760Z,100370.56
2022-08-23T01:50:18.236Z,100368.19
2022-08-23T01:52:21.675Z,100369.69
2022-08-23T01:54:25.416Z,100369.34
2022-08-23T01:56:38.816Z,100370.81
2022-08-23T01:58:46.484Z,100373.19
2022-08-23T02:00:50.016Z,100373.81
2022-08-23T02:02:54.373Z,100379.69
2022-08-23T02:04:57.836Z,100381.19
2022-08-23T02:07:01.548Z,100387.88
2022-08-23T02:09:04.694Z,100384.84
2022-08-23T02:11:13.771Z,100377.25
2022-08-23T02:13:17.244Z,100369.38
2022-08-23T02:15:22.095Z,100361.47
2022-08-23T02:17:25.571Z,100367.84
2022-08-23T02:19:28.818Z,100375.06
2022-08-23T02:21:33.122Z,100379.44
2022-08-23T02:23:36.343Z,100391.97
2022-08-23T02:25:40.418Z,100401.88
2022-08-23T02:27:44.281Z,100403.75
2022-08-23T02:29:51.668Z,100398.50
2022-08-23T02:31:58.620Z,100392.31
2022-08-23T02:34:04.005Z,100389.47
2022-08-23T02:36:08.547Z,100383.44
2022-08-23T02:38:14.071Z,100377.03
2022-08-23T02:40:17.526Z,100373.69
2022-08-23T02:42:21.235Z,100372.00
2022-08-23T02:44:25.676Z,100376.53
2022-08-23T02:46:29.519Z,100372.34
2022-08-23T02:48:34.765Z,100370.66
2022-08-23T02:50:40.246Z,100372.66
2022-08-23T02:52:43.458Z,100371.97
2022-08-23T02:54:48.866Z,100372.13
2022-08-23T02:56:52.884Z,100367.94
2022-08-23T02:58:56.421Z,100372.47
2022-08-23T03:01:01.083Z,100369.09
2022-08-23T03:03:04.909Z,100372.06
2022-08-23T03:05:11.198Z,100372.22
2022-08-23T03:07:14.620Z,100370.69
2022-08-23T03:09:17.975Z,100376.06
2022-08-23T03:11:22.855Z,100380.75
2022-08-23T03:13:28.346Z,100381.91
2022-08-23T03:15:32.298Z,100387.41
2022-08-23T03:17:35.720Z,100394.78
2022-08-23T03:19:42.763Z,100387.06
2022-08-23T03:21:47.537Z,100389.22
2022-08-23T03:23:53.353Z,100395.72
2022-08-23T03:25:58.674Z,100390.00
2022-08-23T03:28:06.320Z,100390.16
2022-08-23T03:30:19.272Z,100399.88
2022-08-23T03:32:30.675Z,100392.16
2022-08-23T03:34:34.735Z,100385.94
2022-08-23T03:36:38.364Z,100383.25
2022-08-23T03:38:43.423Z,100382.44
2022-08-23T03:40:47.268Z,100382.44
2022-08-23T03:42:50.868Z,100381.59
2022-08-23T03:45:02.227Z,100386.09
2022-08-23T03:47:07.224Z,100382.75
2022-08-23T03:49:11.366Z,100384.72
2022-08-23T03:51:29.378Z,100375.03
2022-08-23T03:53:34.214Z,100376.19
2022-08-23T03:55:42.488Z,100380.69
2022-08-23T03:57:49.928Z,100377.19
2022-08-23T03:59:55.488Z,100379.03
2022-08-23T04:02:00.259Z,100379.03
2022-08-23T04:04:05.392Z,100377.50
2022-08-23T04:06:09.783Z,100380.31
2022-08-23T04:08:14.008Z,100391.03
2022-08-23T04:10:22.177Z,100388.34
2022-08-23T04:12:29.941Z,100385.66
2022-08-23T04:14:33.548Z,100390.03
2022-08-23T04:16:37.899Z,100388.34
2022-08-23T04:18:42.166Z,100395.72
2022-08-23T04:20:45.622Z,100391.34
2022-08-23T04:22:53.037Z,100388.81
2022-08-23T04:24:56.909Z,100388.00
2022-08-23T04:27:00.377Z,100386.31
2022-08-23T04:29:05.335Z,100382.78
2022-08-23T04:31:09.215Z,100386.31
2022-08-23T04:33:18.201Z,100389.97
2022-08-23T04:35:22.810Z,100384.63
2022-08-23T04:37:28.189Z,100382.09
2022-08-23T04:39:53.946Z,100390.97
2022-08-23T04:42:15.688Z,100384.78
2022-08-23T04:44:21.961Z,100389.31
2022-08-23T04:46:26.824Z,100393.66
2022-08-23T04:48:31.783Z,100386.63
2022-08-23T04:50:36.155Z,100391.97
2022-08-23T04:52:59.824Z,100402.69
2022-08-23T04:55:04.758Z,100395.66
2022-08-23T04:57:22.954Z,100402.00
2022-08-23T04:59:27.730Z,100401.16
2022-08-23T05:01:31.177Z,100397.78
2022-08-23T05:03:34.867Z,100399.63
2022-08-23T05:05:38.692Z,100399.78
2022-08-23T05:07:43.248Z,100412.31
2022-08-23T05:09:47.408Z,100410.66
2022-08-23T05:11:50.947Z,100397.28
2022-08-23T05:13:54.766Z,100399.94
2022-08-23T05:16:00.417Z,100410.66
2022-08-23T05:18:08.286Z,100414.34
2022-08-23T05:20:12.824Z,100410.97
2022-08-23T05:22:16.163Z,100420.00
2022-08-23T05:24:45.360Z,100418.31
2022-08-23T05:26:48.863Z,100424.34
2022-08-23T05:28:52.480Z,100425.38
2022-08-23T05:31:04.246Z,100430.56
2022-08-23T05:33:14.362Z,100434.94
2022-08-23T05:35:17.843Z,100441.13
2022-08-23T05:37:22.606Z,100439.28
2022-08-23T05:39:33.007Z,100439.97
2022-08-23T05:41:41.765Z,100437.16
2022-08-23T05:43:47.568Z,100444.03
2022-08-23T05:46:02.522Z,100448.25
2022-08-23T05:48:08.764Z,100443.56
2022-08-23T05:50:20.007Z,100448.75
2022-08-23T05:52:23.499Z,100447.94
2022-08-23T05:54:27.558Z,100451.44
2022-08-23T05:56:53.788Z,100465.69
2022-08-23T05:59:00.018Z,100458.34
2022-08-23T06:01:06.651Z,100462.69
2022-08-23T06:03:09.994Z,100466.91
2022-08-23T06:05:14.019Z,100464.06
2022-08-23T06:07:18.407Z,100463.91
2022-08-23T06:09:21.941Z,100461.94
2022-08-23T06:11:28.473Z,100461.78
2022-08-23T06:13:32.996Z,100467.81
2022-08-23T06:15:36.554Z,100471.19
2022-08-23T06:17:42.138Z,100476.41
2022-08-23T06:19:45.986Z,100475.25
2022-08-23T06:21:57.993Z,100478.44
2022-08-23T06:24:07.370Z,100488.03
2022-08-23T06:26:19.499Z,100488.72
2022-08-23T06:28:25.620Z,100483.34
2022-08-23T06:30:31.691Z,100479.69
2022-08-23T06:32:38.138Z,100481.34
2022-08-23T06:35:38.320Z,100491.91
2022-08-23T06:37:33.329Z,100491.78
2022-08-23T06:39:59.782Z,100499.66
2022-08-23T06:42:40.212Z,100500.50
2022-08-23T06:44:45.509Z,100502.19
2022-08-23T06:46:54.274Z,100505.53
2022-08-23T06:48:59.704Z,100494.53
2022-08-23T06:51:04.779Z,100496.88
2022-08-23T06:53:26.697Z,100512.25
2022-08-23T06:55:53.244Z,100503.41
2022-08-23T06:58:00.405Z,100507.50
2022-08-23T07:00:21.965Z,100509.63
2022-08-23T07:02:52.428Z,100502.47
2022-08-23T07:05:28.408Z,100501.25
2022-08-23T07:07:45.987Z,100505.84
2022-08-23T07:09:49.925Z,100502.22
2022-08-23T07:11:56.177Z,100508.09
2022-08-23T07:14:01.093Z,100510.78
2022-08-23T07:16:05.353Z,100522.72
2022-08-23T07:18:13.541Z,100519.97
2022-08-23T07:20:17.581Z,100519.91
2022-08-23T07:22:22.024Z,100522.41
2022-08-23T07:24:32.735Z,100527.75
2022-08-23T07:26:39.468Z,100516.97
2022-08-23T07:28:44.348Z,100523.34
2022-08-23T07:30:48.084Z,100527.84
2022-08-23T07:32:52.154Z,100536.44
2022-08-23T07:34:58.465Z,100545.69
2022-08-23T07:37:04.374Z,100547.03
2022-08-23T07:39:16.316Z,100537.66
2022-08-23T07:41:22.261Z,100545.25
2022-08-23T07:43:26.185Z,100539.56
2022-08-23T07:45:30.545Z,100542.06
2022-08-23T07:47:37.399Z,100542.75
2022-08-23T07:49:43.014Z,100548.81
2022-08-23T07:51:49.897Z,100539.06
2022-08-23T07:53:54.730Z,100544.75
2022-08-23T07:55:59.081Z,100551.13
2022-08-23T07:58:28.252Z,100557.81
2022-08-23T08:00:46.665Z,100552.78
2022-08-23T08:03:13.875Z,100556.63
2022-08-23T08:05:37.702Z,100561.31
2022-08-23T08:07:41.634Z,100576.41
2022-08-23T08:09:45.433Z,100569.06
2022-08-23T08:11:52.508Z,100578.31
2022-08-23T08:14:04.488Z,100560.72
2022-08-23T08:16:09.793Z,100571.31
2022-08-23T08:18:17.220Z,100563.38
2022-08-23T08:20:39.326Z,100567.16
2022-08-23T08:23:08.633Z,100572.75
2022-08-23T08:25:12.703Z,100577.28
2022-08-23T08:27:17.464Z,100569.56
2022-08-23T08:29:22.671Z,100577.66
2022-08-23T08:31:28.774Z,100576.31
2022-08-23T08:33:34.403Z,100582.41
2022-08-23T08:35:38.797Z,100588.63
2022-08-23T08:37:43.073Z,100579.34
2022-08-23T08:39:46.801Z,100579.34
2022-08-23T08:42:05.473Z,100578.66
2022-08-23T08:44:24.275Z,100574.56
2022-08-23T08:46:46.470Z,100583.47
2022-08-23T08:48:55.812Z,100582.66
2022-08-23T08:51:05.085Z,100580.28
2022-08-23T08:53:13.758Z,100582.59
2022-08-23T08:55:43.039Z,100578.00
2022-08-23T08:57:49.380Z,100577.66
2022-08-23T09:00:00.521Z,100572.69
2022-08-23T09:02:32.041Z,100574.63
2022-08-23T09:04:34.982Z,100582.84
2022-08-23T09:06:51.217Z,100581.69
2022-08-23T09:09:17.333Z,100587.06
2022-08-23T09:11:35.260Z,100591.81
2022-08-23T09:14:07.622Z,100586.56
2022-08-23T09:16:23.876Z,100588.41
2022-08-23T09:18:33.566Z,100599.22
2022-08-23T09:20:38.947Z,100594.75
2022-08-23T09:22:46.027Z,100600.81
2022-08-23T09:25:00.111Z,100603.41
2022-08-23T09:27:12.385Z,100601.75
2022-08-23T09:29:23.699Z,100605.94
2022-08-23T09:31:42.201Z,100616.56
2022-08-23T09:33:48.253Z,100615.53
2022-08-23T09:36:20.049Z,100602.72
2022-08-23T09:38:30.184Z,100602.88
2022-08-23T09:40:42.700Z,100597.91
2022-08-23T09:43:05.425Z,100604.25
2022-08-23T09:45:29.782Z,100602.19
2022-08-23T09:47:44.348Z,100600.81
2022-08-23T09:49:52.683Z,100600.53
2022-08-23T09:52:01.044Z,100599.66
2022-08-23T09:54:09.495Z,100596.47
2022-08-23T09:56:17.826Z,100589.22
2022-08-23T10:00:34.618Z,100598.66
2022-08-23T10:02:38.434Z,100595.44
2022-08-23T10:05:00.185Z,100605.44
2022-08-23T10:07:25.031Z,100600.56
2022-08-23T10:09:33.249Z,100598.91
2022-08-23T10:11:48.436Z,100602.66
2022-08-23T10:13:52.839Z,100605.03
2022-08-23T10:16:06.044Z,100603.47
2022-08-23T10:18:27.998Z,100591.81
2022-08-23T10:20:42.449Z,100598.66
2022-08-23T10:22:53.140Z,100600.47
2022-08-23T10:25:18.241Z,100596.28
2022-08-23T10:27:49.311Z,100599.31
2022-08-23T10:30:02.019Z,100594.16
2022-08-23T10:32:18.759Z,100596.19
2022-08-23T10:34:46.008Z,100596.38
2022-08-23T10:37:10.106Z,100588.56
2022-08-23T10:39:21.751Z,100603.56
2022-08-23T10:41:40.468Z,100591.44
2022-08-23T10:43:52.252Z,100600.28
2022-08-23T10:46:01.970Z,100599.75
2022-08-23T10:48:27.133Z,100587.97
2022-08-23T10:50:41.109Z,100602.06
2022-08-23T10:52:52.997Z,100605.69
2022-08-23T10:55:06.598Z,100603.25
2022-08-23T10:57:16.508Z,100602.72
2022-08-23T10:59:24.741Z,100604.00
2022-08-23T11:01:36.887Z,100598.16
2022-08-23T11:03:46.404Z,100598.06
2022-08-23T11:06:22.795Z,100602.63
2022-08-23T11:08:36.913Z,100600.56
2022-08-23T11:10:55.667Z,100601.53
2022-08-23T11:13:21.097Z,100607.13
2022-08-23T11:15:34.463Z,100606.63
2022-08-23T11:17:56.326Z,100612.81
2022-08-23T11:20:03.304Z,100611.91
2022-08-23T11:22:18.735Z,100618.03
2022-08-23T11:24:52.270Z,100621.66
2022-08-23T11:27:08.113Z,100619.84
2022-08-23T11:29:31.244Z,100617.53
2022-08-23T11:32:00.828Z,100614.16
2022-08-23T11:34:11.139Z,100601.53
2022-08-23T11:36:21.783Z,100601.03
2022-08-23T11:39:05.442Z,100606.44
2022-08-23T11:41:25.156Z,100606.53
2022-08-23T11:43:34.419Z,100595.72
2022-08-23T11:45:46.640Z,100598.94
2022-08-23T11:48:07.462Z,100593.06
2022-08-23T11:50:28.197Z,100587.78
2022-08-23T11:52:51.451Z,100598.59
2022-08-23T11:55:18.640Z,100594.88
2022-08-23T11:57:36.510Z,100600.44
2022-08-23T11:59:55.371Z,100600.28
2022-08-23T12:01:59.540Z,100591.94
2022-08-23T12:04:11.337Z,100595.78
2022-08-23T12:06:31.933Z,100602.19
2022-08-23T12:08:58.202Z,100593.84
2022-08-23T12:11:06.564Z,100596.94
2022-08-23T12:13:33.339Z,100597.69
2022-08-23T12:16:16.910Z,100606.28
2022-08-23T12:18:25.046Z,100598.16
2022-08-23T12:20:32.552Z,100602.66
2022-08-23T12:22:58.419Z,100598.84
2022-08-23T12:25:05.949Z,100604.69
2022-08-23T12:27:28.018Z,100597.41
2022-08-23T12:29:48.646Z,100603.25
2022-08-23T12:32:00.003Z,100603.44
2022-08-23T12:34:13.734Z,100605.63
2022-08-23T12:36:23.079Z,100601.00
2022-08-23T12:38:38.195Z,100603.25
2022-08-23T12:40:44.064Z,100611.00
2022-08-23T12:42:48.186Z,100610.16
2022-08-23T12:45:03.799Z,100612.22
2022-08-23T12:47:13.442Z,100611.91
2022-08-23T12:49:27.428Z,100608.06
2022-08-23T12:51:31.329Z,100602.50
2022-08-23T12:53:42.648Z,100614.13
2022-08-23T12:55:52.804Z,100610.59
2022-08-23T12:57:58.548Z,100602.00
2022-08-23T13:00:17.332Z,100604.44
2022-08-23T13:02:26.948Z,100609.34
2022-08-23T13:04:32.968Z,100601.72
2022-08-23T13:06:42.609Z,100603.19
2022-08-23T13:08:49.288Z,100604.06
2022-08-23T13:10:54.058Z,100603.19
2022-08-23T13:12:57.946Z,100596.97
2022-08-23T13:15:03.054Z,100602.84
2022-08-23T13:17:33.239Z,100603.13
2022-08-23T13:19:36.799Z,100601.94
2022-08-23T13:21:40.396Z,100607.19
2022-08-23T13:23:44.339Z,100616.09
2022-08-23T13:25:47.813Z,100619.19
2022-08-23T13:27:55.424Z,100620.38
2022-08-23T13:30:01.226Z,100615.22
2022-08-23T13:32:06.854Z,100615.09
2022-08-23T13:34:11.834Z,100614.25
2022-08-23T13:36:17.842Z,100614.44
2022-08-23T13:38:27.281Z,100619.13
2022-08-23T13:40:33.517Z,100610.66
2022-08-23T13:42:43.036Z,100607.41
2022-08-23T13:44:46.728Z,100612.56
2022-08-23T13:46:50.659Z,100615.28
2022-08-23T13:49:01.324Z,100620.13
2022-08-23T13:51:30.654Z,100615.66
2022-08-23T13:53:34.221Z,100613.97
2022-08-23T13:55:44.838Z,100617.91
2022-08-23T13:57:48.635Z,100622.81
2022-08-23T13:59:55.176Z,100618.44
2022-08-23T14:02:01.621Z,100617.91
2022-08-23T14:04:05.678Z,100610.72
2022-08-23T14:06:11.074Z,100614.34
2022-08-23T14:08:16.240Z,100616.16
2022-08-23T14:10:21.931Z,100611.38
2022-08-23T14:12:28.829Z,100613.88
2022-08-23T14:14:36.280Z,100611.75
2022-08-23T14:16:40.684Z,100613.16
2022-08-23T14:21:08.419Z,100611.19
2022-08-23T14:23:12.598Z,100607.09
2022-08-23T14:25:17.758Z,100609.44
2022-08-23T14:27:21.559Z,100606.34
2022-08-23T14:29:28.614Z,100608.03
2022-08-23T14:31:32.704Z,100604.13
2022-08-23T14:33:36.232Z,100604.38
2022-08-23T14:35:39.689Z,100609.44
2022-08-23T14:40:09.536Z,100601.53
2022-08-23T14:42:18.205Z,100607.09
2022-08-23T14:44:21.813Z,100606.44
2022-08-23T14:46:25.457Z,100607.66
2022-08-23T14:48:29.662Z,100609.34
2022-08-23T14:50:33.458Z,100615.09
2022-08-23T14:52:38.435Z,100616.50
2022-08-23T14:54:42.022Z,100608.75
2022-08-23T14:56:45.912Z,100606.25
2022-08-23T14:58:51.601Z,100612.47
2022-08-23T15:00:55.344Z,100614.34
2022-08-23T15:03:01.289Z,100606.25
2022-08-23T15:05:06.493Z,100606.06
2022-08-23T15:07:18.603Z,100600.47
2022-08-23T15:09:22.883Z,100601.97
2022-08-23T15:13:55.430Z,100604.28
2022-08-23T15:16:01.376Z,100596.84
2022-08-23T15:18:09.858Z,100609.34
2022-08-23T15:20:13.519Z,100607.66
2022-08-23T15:22:18.627Z,100597.69
2022-08-23T15:24:25.523Z,100608.31
2022-08-23T15:26:32.829Z,100608.31
2022-08-23T15:28:36.660Z,100597.50
2022-08-23T15:30:42.136Z,100595.06
2022-08-23T15:32:52.731Z,100603.66
2022-08-23T15:35:00.456Z,100597.03
2022-08-23T15:37:04.220Z,100591.25
2022-08-23T15:39:07.898Z,100585.84
2022-08-23T15:41:12.445Z,100585.84
2022-08-23T15:43:16.351Z,100587.16
2022-08-23T15:45:20.025Z,100572.25
2022-08-23T15:47:36.603Z,100574.38
2022-08-23T15:49:40.431Z,100570.63
2022-08-23T15:51:44.428Z,100573.53
2022-08-23T15:53:48.698Z,100578.94
2022-08-23T15:55:53.097Z,100580.63
2022-08-23T15:57:58.957Z,100584.16
2022-08-23T16:00:02.760Z,100573.53
2022-08-23T16:02:15.585Z,100574.94
2022-08-23T16:04:20.780Z,100574.94
2022-08-23T16:06:24.430Z,100573.44
2022-08-23T16:08:30.664Z,100575.50
2022-08-23T16:10:34.748Z,100574.03
2022-08-23T16:12:38.451Z,100571.31
2022-08-23T16:14:42.031Z,100573.16
2022-08-23T16:16:46.946Z,100572.34
2022-08-23T16:18:53.423Z,100578.41
2022-08-23T16:20:58.705Z,100570.94
2022-08-23T16:23:02.433Z,100572.25
2022-08-23T16:25:07.824Z,100572.25
2022-08-23T16:27:11.946Z,100566.19
2022-08-23T16:29:17.810Z,100563.84
2022-08-23T16:31:21.976Z,100560.31
2022-08-23T16:33:42.973Z,100563.22
2022-08-23T16:35:46.740Z,100567.41
2022-08-23T16:37:52.014Z,100563.03
2022-08-23T16:39:55.880Z,100563.84
2022-08-23T16:42:00.090Z,100562.53
2022-08-23T16:44:03.834Z,100562.94
2022-08-23T16:46:08.552Z,100556.22
2022-08-23T16:48:14.851Z,100556.59
2022-08-23T16:50:18.594Z,100548.03
2022-08-23T16:52:28.765Z,100562.09
2022-08-23T16:54:40.678Z,100566.22
2022-08-23T16:56:44.340Z,100563.22
2022-08-23T16:58:48.215Z,100559.41
2022-08-23T17:00:51.981Z,100563.69
2022-08-23T17:02:55.655Z,100565.72
2022-08-23T17:04:59.711Z,100567.78
2022-08-23T17:07:03.361Z,100572.31
2022-08-23T17:09:07.610Z,100570.81
2022-08-23T17:11:18.423Z,100570.38
2022-08-23T17:13:22.871Z,100572.22
2022-08-23T17:15:29.293Z,100577.31
2022-08-23T17:17:33.229Z,100580.38
2022-08-23T17:19:37.317Z,100577.75
2022-08-23T17:21:42.295Z,100578.50
2022-08-23T17:23:46.098Z,100579.41
2022-08-23T17:25:49.992Z,100576.22
2022-08-23T17:27:56.392Z,100575.94
2022-08-23T17:30:00.425Z,100576.28
2022-08-23T17:32:05.102Z,100576.66
2022-08-23T17:34:09.264Z,100570.94
2022-08-23T17:36:27.782Z,100573.00
2022-08-23T17:38:31.711Z,100570.50
2022-08-23T17:40:37.850Z,100564.59
2022-08-23T17:42:42.072Z,100566.66
2022-08-23T17:44:47.333Z,100558.91
2022-08-23T17:46:52.351Z,100550.34
2022-08-23T17:48:57.844Z,100556.94
2022-08-23T17:51:01.769Z,100567.06
2022-08-23T17:53:05.929Z,100570.94
2022-08-23T17:55:10.882Z,100577.56
2022-08-23T17:57:14.643Z,100575.22
2022-08-23T17:59:20.390Z,100577.06
2022-08-23T18:01:25.771Z,100578.75
2022-08-23T18:03:30.872Z,100571.31
2022-08-23T18:05:35.905Z,100574.69
2022-08-23T18:07:40.340Z,100571.13
2022-08-23T18:09:48.376Z,100568.63
2022-08-23T18:11:52.897Z,100578.41
2022-08-23T18:13:56.374Z,100578.88
2022-08-23T18:16:00.470Z,100573.13
2022-08-23T18:18:06.836Z,100564.84
2022-08-23T18:20:13.220Z,100574.81
2022-08-23T18:22:16.677Z,100570.63
2022-08-23T18:24:20.920Z,100570.13
2022-08-23T18:26:42.966Z,100575.22
2022-08-23T18:28:46.713Z,100573.84
2022-08-23T18:30:54.576Z,100586.00
2022-08-23T18:32:58.795Z,100584.69
2022-08-23T18:35:05.378Z,100586.75
2022-08-23T18:37:09.269Z,100592.47
2022-08-23T18:39:14.915Z,100600.28
2022-08-23T18:41:18.939Z,100601.66
2022-08-23T18:43:27.251Z,100595.94
2022-08-23T18:45:41.155Z,100600.66
2022-08-23T18:47:44.954Z,100595.78
2022-08-23T18:49:48.942Z,100589.91
2022-08-23T18:51:57.132Z,100590.25
2022-08-23T18:54:01.136Z,100588.56
2022-08-23T18:56:06.058Z,100590.63
2022-08-23T18:58:09.886Z,100592.81
2022-08-23T19:00:14.505Z,100588.59
2022-08-23T19:02:18.455Z,100593.34
2022-08-23T19:04:22.149Z,100592.66
2022-08-23T19:06:25.856Z,100596.53
2022-08-23T19:08:30.835Z,100598.59
2022-08-23T19:10:35.162Z,100596.06
2022-08-23T19:12:38.988Z,100603.47
2022-08-23T19:14:56.225Z,100609.91
2022-08-23T19:17:03.791Z,100611.25
2022-08-23T19:19:07.953Z,100610.59
2022-08-23T19:21:11.958Z,100607.22
2022-08-23T19:23:15.660Z,100597.63
2022-08-23T19:25:21.955Z,100607.56
2022-08-23T19:27:25.517Z,100612.28
2022-08-23T19:29:29.088Z,100618.88
2022-08-23T19:31:37.182Z,100611.97
2022-08-23T19:33:43.381Z,100609.59
2022-08-23T19:35:47.244Z,100615.28
2022-08-23T19:37:51.180Z,100613.97
2022-08-23T19:39:54.792Z,100617.19
2022-08-23T19:42:00.118Z,100609.63
2022-08-23T19:44:03.929Z,100608.09
2022-08-23T19:46:14.259Z,100611.13
2022-08-23T19:48:19.376Z,100615.03
2022-08-23T19:50:24.023Z,100601.88
2022-08-23T19:52:28.376Z,100604.75
2022-08-23T19:54:33.185Z,100612.16
2022-08-23T19:56:39.947Z,100626.63
2022-08-23T19:58:45.201Z,100629.50
2022-08-23T20:00:48.840Z,100631.19
2022-08-23T20:02:53.286Z,100632.34
2022-08-23T20:04:58.197Z,100632.53
2022-08-23T20:07:03.412Z,100628.97
2022-08-23T20:09:08.749Z,100624.47
2022-08-23T20:11:13.598Z,100628.31
2022-08-23T20:13:17.425Z,100623.09
2022-08-23T20:15:23.000Z,100627.81
2022-08-23T20:17:27.794Z,100631.50
2022-08-23T20:19:31.743Z,100621.78
2022-08-23T20:21:35.873Z,100627.28
2022-08-23T20:23:56.594Z,100624.94
2022-08-23T20:26:00.286Z,100613.69
2022-08-23T20:28:08.623Z,100617.22
2022-08-23T20:30:15.113Z,100618.38
2022-08-23T20:32:20.832Z,100617.56
2022-08-23T20:34:26.497Z,100623.09
2022-08-23T20:36:31.598Z,100620.41
2022-08-23T20:38:36.295Z,100628.47
2022-08-23T20:40:39.897Z,100627.81
2022-08-23T20:42:43.432Z,100629.97
2022-08-23T20:44:47.080Z,100627.81
2022-08-23T20:46:54.347Z,100626.13
2022-08-23T20:49:02.001Z,100641.59
2022-08-23T20:51:08.238Z,100644.28
2022-08-23T20:53:13.058Z,100647.97
2022-08-23T20:55:16.694Z,100646.63
2022-08-23T20:57:20.332Z,100641.59
2022-08-23T20:59:24.120Z,100647.44
2022-08-23T21:01:28.000Z,100643.38
2022-08-23T21:03:31.884Z,100649.91
2022-08-23T21:05:37.156Z,100648.41
2022-08-23T21:07:41.947Z,100646.91
2022-08-23T21:09:45.902Z,100644.84
2022-08-23T21:11:49.851Z,100644.84
2022-08-23T21:13:53.534Z,100636.75
2022-08-23T21:15:57.198Z,100624.78
2022-08-23T21:18:01.085Z,100634.50
2022-08-23T21:20:06.131Z,100632.09
2022-08-23T21:22:13.286Z,100624.53
2022-08-23T21:24:17.295Z,100620.47
2022-08-23T21:26:22.428Z,100622.47
2022-08-23T21:28:27.313Z,100621.63
2022-08-23T21:30:31.102Z,100624.16
2022-08-23T21:32:34.781Z,100619.63
2022-08-23T21:34:38.755Z,100624.84
2022-08-23T21:36:42.277Z,100617.78
2022-08-23T21:38:47.874Z,100610.72
2022-08-23T21:40:58.439Z,100613.56
2022-08-23T21:43:02.559Z,100613.91
2022-08-23T21:45:07.925Z,100611.69
2022-08-23T21:47:11.639Z,100606.81
2022-08-23T21:49:16.242Z,100602.59
2022-08-23T21:51:20.097Z,100598.50
2022-08-23T21:53:23.662Z,100600.31
2022-08-23T21:55:36.166Z,100605.81
2022-08-23T21:57:41.529Z,100596.78
2022-08-23T21:59:45.182Z,100594.94
2022-08-23T22:01:48.987Z,100590.41
2022-08-23T22:03:56.787Z,100593.75
2022-08-23T22:06:00.659Z,100595.16
2022-08-23T22:08:04.707Z,100589.28
2022-08-23T22:10:10.507Z,100574.00
2022-08-23T22:12:16.012Z,100577.72
2022-08-23T22:14:22.167Z,100584.25
2022-08-23T22:16:25.942Z,100581.56
2022-08-23T22:18:29.705Z,100573.69
2022-08-23T22:20:34.609Z,100574.66
2022-08-23T22:22:38.711Z,100567.44
2022-08-23T22:24:42.602Z,100557.56
2022-08-23T22:26:46.899Z,100564.28
2022-08-23T22:28:52.054Z,100558.78
2022-08-23T22:30:59.068Z,100559.44
2022-08-23T22:33:03.338Z,100558.78
2022-08-23T22:35:09.008Z,100561.59
2022-08-23T22:37:12.766Z,100556.38
2022-08-23T22:39:16.316Z,100555.53
2022-08-23T22:41:25.606Z,100558.22
2022-08-23T22:43:29.357Z,100562.59
2022-08-23T22:45:34.700Z,100556.09
2022-08-23T22:47:38.275Z,100551.88
2022-08-23T22:49:42.146Z,100550.16
2022-08-23T22:51:45.816Z,100554.88
2022-08-23T22:53:56.148Z,100550.50
2022-08-23T22:56:00.057Z,100537.38
2022-08-23T22:58:04.003Z,100546.72
2022-08-23T23:00:09.681Z,100543.53
2022-08-23T23:02:16.418Z,100539.16
2022-08-23T23:04:22.384Z,100541.47
2022-08-23T23:06:27.775Z,100532.41
2022-08-23T23:08:30.351Z,100532.09
2022-08-23T23:10:33.939Z,100523.75
2022-08-23T23:12:37.583Z,100527.25
2022-08-23T23:14:41.257Z,100534.31
2022-08-23T23:16:49.354Z,100528.94
2022-08-23T23:19:08.798Z,100540.84
2022-08-23T23:21:13.212Z,100534.63
2022-08-23T23:23:19.329Z,100538.16
2022-08-23T23:25:23.295Z,100533.63
2022-08-23T23:27:26.693Z,100530.28
2022-08-23T23:29:31.029Z,100533.94
2022-08-23T23:31:34.362Z,100528.91
2022-08-23T23:33:37.585Z,100533.56
2022-08-23T23:35:42.787Z,100533.91
2022-08-23T23:37:49.463Z,100539.59
2022-08-23T23:39:53.100Z,100540.22
2022-08-23T23:41:56.673Z,100547.91
2022-08-23T23:44:00.597Z,100540.28
2022-08-23T23:46:06.353Z,100539.13
2022-08-23T23:48:10.033Z,100540.25
2022-08-23T23:50:14.264Z,100542.09
2022-08-23T23:52:18.929Z,100544.63
2022-08-23T23:54:22.167Z,100536.94
2022-08-23T23:56:27.509Z,100546.06
2022-08-23T23:58:30.823Z,100549.50
